sensor_id;sensor_type;location;lat;lon;timestamp;temperature;humidity
19864;DHT22;10094;48.820;9.226;2022-09-09T00:01:21;16.50;99.90
19864;DHT22;10094;48.820;9.226;2022-09-09T00:08:15;16.40;99.90
19864;DHT22;10094;48.820;9.226;2022-09-09T00:15:07;16.30;99.90
19864;DHT22;10094;48.820;9.226;2022-09-09T00:22:04;16.40;99.90
19864;DHT22;10094;48.820;9.226;2022-09-09T00:35:54;16.30;99.90
19864;DHT22;10094;48.820;9.226;2022-09-09T00:42:43;16.70;99.90
19864;DHT22;10094;48.820;9.226;2022-09-09T01:04:23;16.70;99.90
19864;DHT22;10094;48.820;9.226;2022-09-09T01:11:20;17.20;99.90
19864;DHT22;10094;48.820;9.226;2022-09-09T01:18:12;16.70;99.90
19864;DHT22;10094;48.820;9.226;2022-09-09T01:32:49;16.60;99.90
19864;DHT22;10094;48.820;9.226;2022-09-09T01:39:33;16.80;99.90
19864;DHT22;10094;48.820;9.226;2022-09-09T01:46:21;17.10;99.90
19864;DHT22;10094;48.820;9.226;2022-09-09T01:53:05;16.80;99.90
19864;DHT22;10094;48.820;9.226;2022-09-09T02:00:05;16.70;99.90
19864;DHT22;10094;48.820;9.226;2022-09-09T02:06:56;16.90;99.90
19864;DHT22;10094;48.820;9.226;2022-09-09T02:13:46;16.60;99.90
19864;DHT22;10094;48.820;9.226;2022-09-09T02:20:31;16.80;99.90
19864;DHT22;10094;48.820;9.226;2022-09-09T02:27:17;16.60;99.90
19864;DHT22;10094;48.820;9.226;2022-09-09T02:34:02;16.50;99.90
19864;DHT22;10094;48.820;9.226;2022-09-09T02:40:45;16.40;99.90
19864;DHT22;10094;48.820;9.226;2022-09-09T02:47:35;16.70;99.90
19864;DHT22;10094;48.820;9.226;2022-09-09T02:54:31;16.30;99.90
19864;DHT22;10094;48.820;9.226;2022-09-09T03:01:18;17.20;99.90
19864;DHT22;10094;48.820;9.226;2022-09-09T03:08:01;16.20;99.90
19864;DHT22;10094;48.820;9.226;2022-09-09T03:14:44;16.10;99.90
19864;DHT22;10094;48.820;9.226;2022-09-09T03:21:28;16.50;99.90
19864;DHT22;10094;48.820;9.226;2022-09-09T03:28:11;16.20;99.90
19864;DHT22;10094;48.820;9.226;2022-09-09T03:34:54;16.20;99.90
19864;DHT22;10094;48.820;9.226;2022-09-09T03:41:36;16.10;99.90
19864;DHT22;10094;48.820;9.226;2022-09-09T03:48:19;15.70;99.90
19864;DHT22;10094;48.820;9.226;2022-09-09T03:55:02;15.80;99.90
19864;DHT22;10094;48.820;9.226;2022-09-09T04:01:45;15.80;99.90
19864;DHT22;10094;48.820;9.226;2022-09-09T04:08:27;16.30;99.90
19864;DHT22;10094;48.820;9.226;2022-09-09T04:15:10;15.90;99.90
19864;DHT22;10094;48.820;9.226;2022-09-09T04:21:54;15.90;99.90
19864;DHT22;10094;48.820;9.226;2022-09-09T04:28:37;16.30;99.90
19864;DHT22;10094;48.820;9.226;2022-09-09T04:35:26;15.70;99.90
19864;DHT22;10094;48.820;9.226;2022-09-09T04:42:11;15.80;99.90
19864;DHT22;10094;48.820;9.226;2022-09-09T04:48:54;15.90;99.90
19864;DHT22;10094;48.820;9.226;2022-09-09T04:55:42;15.90;99.90
19864;DHT22;10094;48.820;9.226;2022-09-09T05:02:24;15.80;99.90
19864;DHT22;10094;48.820;9.226;2022-09-09T05:09:12;16.40;99.90
19864;DHT22;10094;48.820;9.226;2022-09-09T05:15:55;15.80;99.90
19864;DHT22;10094;48.820;9.226;2022-09-09T05:22:38;15.80;99.90
19864;DHT22;10094;48.820;9.226;2022-09-09T05:29:20;16.00;99.90
19864;DHT22;10094;48.820;9.226;2022-09-09T05:36:17;16.30;99.90
19864;DHT22;10094;48.820;9.226;2022-09-09T05:43:02;16.80;99.90
19864;DHT22;10094;48.820;9.226;2022-09-09T05:49:44;16.70;99.90
19864;DHT22;10094;48.820;9.226;2022-09-09T05:56:29;17.00;99.90
19864;DHT22;10094;48.820;9.226;2022-09-09T06:03:13;16.40;99.90
19864;DHT22;10094;48.820;9.226;2022-09-09T06:09:56;17.90;99.90
19864;DHT22;10094;48.820;9.226;2022-09-09T06:16:39;17.50;99.90
19864;DHT22;10094;48.820;9.226;2022-09-09T06:23:29;17.70;99.90
19864;DHT22;10094;48.820;9.226;2022-09-09T06:30:12;17.90;99.90
19864;DHT22;10094;48.820;9.226;2022-09-09T06:36:56;18.10;99.90
19864;DHT22;10094;48.820;9.226;2022-09-09T06:43:45;18.00;99.90
19864;DHT22;10094;48.820;9.226;2022-09-09T06:50:27;18.40;99.90
19864;DHT22;10094;48.820;9.226;2022-09-09T06:57:10;18.50;99.90
19864;DHT22;10094;48.820;9.226;2022-09-09T07:04:13;18.90;99.90
19864;DHT22;10094;48.820;9.226;2022-09-09T07:11:05;18.70;99.90
19864;DHT22;10094;48.820;9.226;2022-09-09T07:17:55;19.10;99.90
19864;DHT22;10094;48.820;9.226;2022-09-09T07:24:37;19.50;98.60
19864;DHT22;10094;48.820;9.226;2022-09-09T07:31:23;20.30;98.00
19864;DHT22;10094;48.820;9.226;2022-09-09T07:38:06;21.20;96.80
19864;DHT22;10094;48.820;9.226;2022-09-09T07:44:49;21.20;95.80
19864;DHT22;10094;48.820;9.226;2022-09-09T07:51:37;21.70;94.80
19864;DHT22;10094;48.820;9.226;2022-09-09T07:58:21;23.60;93.20
19864;DHT22;10094;48.820;9.226;2022-09-09T08:05:03;24.70;92.20
19864;DHT22;10094;48.820;9.226;2022-09-09T08:11:48;27.30;89.40
19864;DHT22;10094;48.820;9.226;2022-09-09T08:18:32;30.80;85.00
19864;DHT22;10094;48.820;9.226;2022-09-09T08:25:14;32.00;81.40
19864;DHT22;10094;48.820;9.226;2022-09-09T08:31:57;32.20;79.40
19864;DHT22;10094;48.820;9.226;2022-09-09T08:38:43;32.20;78.20
19864;DHT22;10094;48.820;9.226;2022-09-09T08:45:31;32.60;77.50
19864;DHT22;10094;48.820;9.226;2022-09-09T08:52:30;33.10;75.80
19864;DHT22;10094;48.820;9.226;2022-09-09T08:59:17;32.90;75.40
19864;DHT22;10094;48.820;9.226;2022-09-09T09:06:06;33.90;73.10
19864;DHT22;10094;48.820;9.226;2022-09-09T09:12:53;33.40;72.40
19864;DHT22;10094;48.820;9.226;2022-09-09T09:19:39;32.40;71.80
19864;DHT22;10094;48.820;9.226;2022-09-09T09:26:35;29.30;74.10
19864;DHT22;10094;48.820;9.226;2022-09-09T09:33:26;28.20;74.60
19864;DHT22;10094;48.820;9.226;2022-09-09T09:40:16;27.10;76.80
19864;DHT22;10094;48.820;9.226;2022-09-09T09:47:14;25.30;79.10
19864;DHT22;10094;48.820;9.226;2022-09-09T10:00:56;24.50;80.90
19864;DHT22;10094;48.820;9.226;2022-09-09T10:07:42;27.70;77.40
19864;DHT22;10094;48.820;9.226;2022-09-09T10:14:55;30.10;74.50
19864;DHT22;10094;48.820;9.226;2022-09-09T10:29:44;31.20;70.90
19864;DHT22;10094;48.820;9.226;2022-09-09T10:36:29;30.90;72.50
19864;DHT22;10094;48.820;9.226;2022-09-09T10:43:20;29.80;73.60
19864;DHT22;10094;48.820;9.226;2022-09-09T10:57:48;25.80;79.40
19864;DHT22;10094;48.820;9.226;2022-09-09T11:04:42;24.10;83.00
19864;DHT22;10094;48.820;9.226;2022-09-09T11:11:52;24.60;84.30
19864;DHT22;10094;48.820;9.226;2022-09-09T11:18:39;24.90;84.90
19864;DHT22;10094;48.820;9.226;2022-09-09T11:25:31;25.00;84.70
19864;DHT22;10094;48.820;9.226;2022-09-09T11:32:39;24.20;82.10
19864;DHT22;10094;48.820;9.226;2022-09-09T11:46:35;22.90;85.50
19864;DHT22;10094;48.820;9.226;2022-09-09T11:53:21;23.00;85.10
19864;DHT22;10094;48.820;9.226;2022-09-09T12:00:06;23.00;84.40
19864;DHT22;10094;48.820;9.226;2022-09-09T12:07:02;23.50;84.30
19864;DHT22;10094;48.820;9.226;2022-09-09T12:13:56;23.90;83.90
19864;DHT22;10094;48.820;9.226;2022-09-09T12:20:54;23.90;81.80
19864;DHT22;10094;48.820;9.226;2022-09-09T12:28:11;24.20;81.00
19864;DHT22;10094;48.820;9.226;2022-09-09T12:35:10;23.40;81.60
19864;DHT22;10094;48.820;9.226;2022-09-09T12:41:54;23.10;81.80
19864;DHT22;10094;48.820;9.226;2022-09-09T12:48:40;23.90;82.00
19864;DHT22;10094;48.820;9.226;2022-09-09T12:55:31;23.70;79.80
19864;DHT22;10094;48.820;9.226;2022-09-09T13:02:23;24.20;79.10
19864;DHT22;10094;48.820;9.226;2022-09-09T13:09:08;24.70;79.50
19864;DHT22;10094;48.820;9.226;2022-09-09T13:15:56;25.00;78.70
19864;DHT22;10094;48.820;9.226;2022-09-09T13:22:39;25.20;78.50
19864;DHT22;10094;48.820;9.226;2022-09-09T13:29:23;25.00;78.80
19864;DHT22;10094;48.820;9.226;2022-09-09T13:36:10;24.50;79.70
19864;DHT22;10094;48.820;9.226;2022-09-09T13:42:56;24.80;80.20
19864;DHT22;10094;48.820;9.226;2022-09-09T13:49:38;25.40;79.60
19864;DHT22;10094;48.820;9.226;2022-09-09T13:56:21;25.10;79.40
19864;DHT22;10094;48.820;9.226;2022-09-09T14:03:03;24.70;79.80
19864;DHT22;10094;48.820;9.226;2022-09-09T14:09:45;24.50;79.10
19864;DHT22;10094;48.820;9.226;2022-09-09T14:16:32;25.40;78.20
19864;DHT22;10094;48.820;9.226;2022-09-09T14:23:14;25.10;78.10
19864;DHT22;10094;48.820;9.226;2022-09-09T14:29:57;25.30;77.40
19864;DHT22;10094;48.820;9.226;2022-09-09T14:36:40;25.20;76.30
19864;DHT22;10094;48.820;9.226;2022-09-09T14:43:23;24.90;75.70
19864;DHT22;10094;48.820;9.226;2022-09-09T14:50:06;25.00;75.40
19864;DHT22;10094;48.820;9.226;2022-09-09T14:56:50;24.90;75.50
19864;DHT22;10094;48.820;9.226;2022-09-09T15:03:32;24.70;76.00
19864;DHT22;10094;48.820;9.226;2022-09-09T15:10:16;25.10;76.00
19864;DHT22;10094;48.820;9.226;2022-09-09T15:16:59;25.10;76.10
19864;DHT22;10094;48.820;9.226;2022-09-09T15:23:42;24.70;75.00
19864;DHT22;10094;48.820;9.226;2022-09-09T15:30:24;24.30;76.00
19864;DHT22;10094;48.820;9.226;2022-09-09T15:37:10;24.30;76.40
19864;DHT22;10094;48.820;9.226;2022-09-09T15:43:55;24.20;76.90
19864;DHT22;10094;48.820;9.226;2022-09-09T15:50:41;24.30;76.50
19864;DHT22;10094;48.820;9.226;2022-09-09T15:57:23;24.00;76.60
19864;DHT22;10094;48.820;9.226;2022-09-09T16:04:05;23.80;77.10
19864;DHT22;10094;48.820;9.226;2022-09-09T16:10:48;23.40;77.80
19864;DHT22;10094;48.820;9.226;2022-09-09T16:17:31;23.70;78.80
19864;DHT22;10094;48.820;9.226;2022-09-09T16:24:20;23.20;79.20
19864;DHT22;10094;48.820;9.226;2022-09-09T16:31:10;22.90;81.80
19864;DHT22;10094;48.820;9.226;2022-09-09T16:37:54;22.70;82.00
19864;DHT22;10094;48.820;9.226;2022-09-09T16:44:39;22.10;81.30
19864;DHT22;10094;48.820;9.226;2022-09-09T16:51:27;21.90;82.10
19864;DHT22;10094;48.820;9.226;2022-09-09T16:58:12;21.10;83.80
19864;DHT22;10094;48.820;9.226;2022-09-09T17:04:55;21.10;83.90
19864;DHT22;10094;48.820;9.226;2022-09-09T17:11:38;20.80;86.80
19864;DHT22;10094;48.820;9.226;2022-09-09T17:18:21;20.70;89.10
19864;DHT22;10094;48.820;9.226;2022-09-09T17:25:05;20.80;89.50
19864;DHT22;10094;48.820;9.226;2022-09-09T17:31:47;20.40;89.40
19864;DHT22;10094;48.820;9.226;2022-09-09T17:38:30;20.30;90.20
19864;DHT22;10094;48.820;9.226;2022-09-09T17:45:12;20.20;90.80
19864;DHT22;10094;48.820;9.226;2022-09-09T17:51:54;20.10;91.40
19864;DHT22;10094;48.820;9.226;2022-09-09T17:58:38;20.00;91.70
19864;DHT22;10094;48.820;9.226;2022-09-09T18:05:21;19.90;91.80
19864;DHT22;10094;48.820;9.226;2022-09-09T18:12:03;20.20;92.20
19864;DHT22;10094;48.820;9.226;2022-09-09T18:18:46;19.70;92.60
19864;DHT22;10094;48.820;9.226;2022-09-09T18:25:28;19.60;93.10
19864;DHT22;10094;48.820;9.226;2022-09-09T18:32:10;19.80;93.70
19864;DHT22;10094;48.820;9.226;2022-09-09T18:38:55;20.20;93.80
19864;DHT22;10094;48.820;9.226;2022-09-09T18:45:38;19.80;94.00
19864;DHT22;10094;48.820;9.226;2022-09-09T18:52:20;19.90;95.40
19864;DHT22;10094;48.820;9.226;2022-09-09T18:59:05;19.80;95.50
19864;DHT22;10094;48.820;9.226;2022-09-09T19:05:48;19.80;95.60
19864;DHT22;10094;48.820;9.226;2022-09-09T19:12:32;19.40;96.70
19864;DHT22;10094;48.820;9.226;2022-09-09T19:19:18;19.20;98.40
19864;DHT22;10094;48.820;9.226;2022-09-09T19:26:01;19.00;98.90
19864;DHT22;10094;48.820;9.226;2022-09-09T19:32:44;19.40;98.70
19864;DHT22;10094;48.820;9.226;2022-09-09T19:39:35;18.70;98.90
19864;DHT22;10094;48.820;9.226;2022-09-09T19:46:17;18.80;99.10
19864;DHT22;10094;48.820;9.226;2022-09-09T19:53:00;18.70;99.90
19864;DHT22;10094;48.820;9.226;2022-09-09T19:59:42;18.30;99.90
19864;DHT22;10094;48.820;9.226;2022-09-09T20:06:28;18.20;99.90
19864;DHT22;10094;48.820;9.226;2022-09-09T20:13:10;18.10;99.90
19864;DHT22;10094;48.820;9.226;2022-09-09T20:19:53;18.00;99.90
19864;DHT22;10094;48.820;9.226;2022-09-09T20:26:35;17.80;99.90
19864;DHT22;10094;48.820;9.226;2022-09-09T20:33:18;18.10;99.90
19864;DHT22;10094;48.820;9.226;2022-09-09T20:40:02;17.90;99.90
19864;DHT22;10094;48.820;9.226;2022-09-09T20:46:50;18.00;99.90
19864;DHT22;10094;48.820;9.226;2022-09-09T20:53:32;17.70;99.90
19864;DHT22;10094;48.820;9.226;2022-09-09T21:00:16;17.70;99.90
19864;DHT22;10094;48.820;9.226;2022-09-09T21:06:58;18.00;99.90
19864;DHT22;10094;48.820;9.226;2022-09-09T21:13:42;18.00;99.50
19864;DHT22;10094;48.820;9.226;2022-09-09T21:20:24;18.20;99.20
19864;DHT22;10094;48.820;9.226;2022-09-09T21:27:07;18.20;98.80
19864;DHT22;10094;48.820;9.226;2022-09-09T21:33:49;18.00;98.80
19864;DHT22;10094;48.820;9.226;2022-09-09T21:40:35;17.90;99.50
19864;DHT22;10094;48.820;9.226;2022-09-09T21:47:19;17.70;99.90
19864;DHT22;10094;48.820;9.226;2022-09-09T21:54:01;17.60;99.90
19864;DHT22;10094;48.820;9.226;2022-09-09T22:00:45;17.70;99.90
19864;DHT22;10094;48.820;9.226;2022-09-09T22:07:28;17.90;99.90
19864;DHT22;10094;48.820;9.226;2022-09-09T22:14:11;18.30;99.90
19864;DHT22;10094;48.820;9.226;2022-09-09T22:20:53;17.80;99.90
19864;DHT22;10094;48.820;9.226;2022-09-09T22:27:36;17.80;99.90
19864;DHT22;10094;48.820;9.226;2022-09-09T22:34:19;18.30;99.90
19864;DHT22;10094;48.820;9.226;2022-09-09T22:41:04;17.80;99.90
19864;DHT22;10094;48.820;9.226;2022-09-09T22:47:47;17.80;99.90
19864;DHT22;10094;48.820;9.226;2022-09-09T22:54:30;17.90;99.90
19864;DHT22;10094;48.820;9.226;2022-09-09T23:01:14;17.80;99.90
19864;DHT22;10094;48.820;9.226;2022-09-09T23:07:57;17.60;99.90
19864;DHT22;10094;48.820;9.226;2022-09-09T23:14:40;17.90;99.90
19864;DHT22;10094;48.820;9.226;2022-09-09T23:21:23;18.10;99.90
19864;DHT22;10094;48.820;9.226;2022-09-09T23:28:07;17.70;99.90
19864;DHT22;10094;48.820;9.226;2022-09-09T23:34:50;17.50;99.90
19864;DHT22;10094;48.820;9.226;2022-09-09T23:41:33;17.40;99.90
19864;DHT22;10094;48.820;9.226;2022-09-09T23:48:17;17.30;99.90
19864;DHT22;10094;48.820;9.226;2022-09-09T23:54:59;17.20;99.90
